createdAt,value
2023-12-27T00:00:50.733Z,9.40
2023-12-27T00:03:17.501Z,9.31
2023-12-27T00:05:44.097Z,9.28
2023-12-27T00:08:10.861Z,9.26
2023-12-27T00:10:37.376Z,9.22
2023-12-27T00:13:04.078Z,9.16
2023-12-27T00:15:30.712Z,9.08
2023-12-27T00:17:57.617Z,9.06
2023-12-27T00:20:24.361Z,9.01
2023-12-27T00:22:50.823Z,9.00
2023-12-27T00:25:17.298Z,9.00
2023-12-27T00:27:43.835Z,8.98
2023-12-27T00:30:10.915Z,8.99
2023-12-27T00:32:37.532Z,8.96
2023-12-27T00:35:04.261Z,9.01
2023-12-27T00:37:31.979Z,9.01
2023-12-27T00:39:58.496Z,8.99
2023-12-27T00:42:25.092Z,8.97
2023-12-27T00:44:52.663Z,8.92
2023-12-27T00:47:19.777Z,9.05
2023-12-27T00:49:46.378Z,9.07
2023-12-27T00:52:13.458Z,9.03
2023-12-27T00:54:40.092Z,9.15
2023-12-27T00:57:07.064Z,9.04
2023-12-27T00:59:33.765Z,9.07
2023-12-27T01:02:00.235Z,9.05
2023-12-27T01:04:26.891Z,8.99
2023-12-27T01:06:53.477Z,9.03
2023-12-27T01:09:20.074Z,9.11
2023-12-27T01:11:46.846Z,9.08
2023-12-27T01:14:13.696Z,9.09
2023-12-27T01:16:40.241Z,9.17
2023-12-27T01:19:06.843Z,9.13
2023-12-27T01:21:33.639Z,9.11
2023-12-27T01:24:00.372Z,9.22
2023-12-27T01:26:27.026Z,9.22
2023-12-27T01:28:53.532Z,9.27
2023-12-27T01:31:20.112Z,9.24
2023-12-27T01:33:46.889Z,9.26
2023-12-27T01:36:13.772Z,9.25
2023-12-27T01:38:40.308Z,9.23
2023-12-27T01:41:06.805Z,9.24
2023-12-27T01:43:33.400Z,9.27
2023-12-27T01:45:59.904Z,9.22
2023-12-27T01:48:26.713Z,9.09
2023-12-27T01:50:55.051Z,9.05
2023-12-27T01:53:23.525Z,9.11
2023-12-27T01:55:51.923Z,9.08
2023-12-27T01:58:18.773Z,9.07
2023-12-27T02:00:46.877Z,9.03
2023-12-27T02:03:15.956Z,9.00
2023-12-27T02:05:42.792Z,8.96
2023-12-27T02:08:11.234Z,8.87
2023-12-27T02:10:38.536Z,8.91
2023-12-27T02:13:06.083Z,8.86
2023-12-27T02:15:39.288Z,8.94
2023-12-27T02:18:07.775Z,8.81
2023-12-27T02:20:35.050Z,8.77
2023-12-27T02:23:06.354Z,8.72
2023-12-27T02:25:36.589Z,8.87
2023-12-27T02:28:03.265Z,8.89
2023-12-27T02:30:32.441Z,8.87
2023-12-27T02:32:59.180Z,8.90
2023-12-27T02:35:25.841Z,8.92
2023-12-27T02:37:52.444Z,8.99
2023-12-27T02:40:19.020Z,9.04
2023-12-27T02:42:45.671Z,9.01
2023-12-27T02:45:12.308Z,9.03
2023-12-27T02:47:38.915Z,9.05
2023-12-27T02:50:06.115Z,9.03
2023-12-27T02:52:32.690Z,9.14
2023-12-27T02:54:59.257Z,9.08
2023-12-27T02:57:25.871Z,9.09
2023-12-27T02:59:52.464Z,9.11
2023-12-27T03:02:19.025Z,9.07
2023-12-27T03:04:45.582Z,9.16
2023-12-27T03:07:12.798Z,9.12
2023-12-27T03:09:39.331Z,9.12
2023-12-27T03:12:06.501Z,9.08
2023-12-27T03:14:33.324Z,9.10
2023-12-27T03:17:00.991Z,9.15
2023-12-27T03:19:27.615Z,9.09
2023-12-27T03:21:54.240Z,9.09
2023-12-27T03:24:20.819Z,9.15
2023-12-27T03:26:47.338Z,9.17
2023-12-27T03:29:13.891Z,9.28
2023-12-27T03:31:40.429Z,9.35
2023-12-27T03:34:07.087Z,9.28
2023-12-27T03:36:33.796Z,9.30
2023-12-27T03:39:00.359Z,9.18
2023-12-27T03:41:27.036Z,9.08
2023-12-27T03:43:59.468Z,9.17
2023-12-27T03:46:26.551Z,9.17
2023-12-27T03:48:53.198Z,9.16
2023-12-27T03:51:25.970Z,9.05
2023-12-27T03:53:52.592Z,9.16
2023-12-27T03:56:19.137Z,9.14
2023-12-27T03:58:45.656Z,9.08
2023-12-27T04:01:12.482Z,9.10
2023-12-27T04:03:40.939Z,9.19
2023-12-27T04:06:07.872Z,9.28
2023-12-27T04:08:37.038Z,9.29
2023-12-27T04:11:03.889Z,9.34
2023-12-27T04:13:30.478Z,9.40
2023-12-27T04:15:56.972Z,9.42
2023-12-27T04:18:23.590Z,9.29
2023-12-27T04:20:50.181Z,9.27
2023-12-27T04:23:16.689Z,9.23
2023-12-27T04:25:43.356Z,9.28
2023-12-27T04:28:10.025Z,9.18
2023-12-27T04:30:36.578Z,9.16
2023-12-27T04:33:03.512Z,9.05
2023-12-27T04:35:30.164Z,8.87
2023-12-27T04:37:56.945Z,8.88
2023-12-27T04:40:23.927Z,8.93
2023-12-27T04:42:50.430Z,8.86
2023-12-27T04:45:18.172Z,8.77
2023-12-27T04:47:44.846Z,8.60
2023-12-27T04:50:11.688Z,8.61
2023-12-27T04:52:38.235Z,8.51
2023-12-27T04:55:05.388Z,8.43
2023-12-27T04:57:34.205Z,8.31
2023-12-27T05:00:00.863Z,8.34
2023-12-27T05:02:27.505Z,8.37
2023-12-27T05:04:54.004Z,8.27
2023-12-27T05:07:20.512Z,8.21
2023-12-27T05:09:47.053Z,8.10
2023-12-27T05:12:13.607Z,8.19
2023-12-27T05:14:40.114Z,8.16
2023-12-27T05:17:06.674Z,8.16
2023-12-27T05:19:33.749Z,8.03
2023-12-27T05:22:00.337Z,8.01
2023-12-27T05:24:27.096Z,7.98
2023-12-27T05:26:55.712Z,7.99
2023-12-27T05:29:22.408Z,7.94
2023-12-27T05:31:49.024Z,7.87
2023-12-27T05:34:15.597Z,8.00
2023-12-27T05:36:42.176Z,8.00
2023-12-27T05:39:08.692Z,7.95
2023-12-27T05:41:35.235Z,7.95
2023-12-27T05:44:02.620Z,7.98
2023-12-27T05:46:29.595Z,7.81
2023-12-27T05:48:56.140Z,7.91
2023-12-27T05:51:22.733Z,7.83
2023-12-27T05:53:49.244Z,7.86
2023-12-27T05:56:15.776Z,7.84
2023-12-27T05:58:42.282Z,7.90
2023-12-27T06:01:10.467Z,8.00
2023-12-27T06:03:37.547Z,8.07
2023-12-27T06:06:04.365Z,8.08
2023-12-27T06:08:30.973Z,8.13
2023-12-27T06:10:57.446Z,8.25
2023-12-27T06:13:23.937Z,8.17
2023-12-27T06:15:50.444Z,8.26
2023-12-27T06:18:17.347Z,8.32
2023-12-27T06:20:43.973Z,8.33
2023-12-27T06:23:10.504Z,8.28
2023-12-27T06:25:37.061Z,8.29
2023-12-27T06:28:05.320Z,8.30
2023-12-27T06:30:31.980Z,8.25
2023-12-27T06:32:58.770Z,8.20
2023-12-27T06:35:25.353Z,8.20
2023-12-27T06:37:51.807Z,8.18
2023-12-27T06:40:18.294Z,8.09
2023-12-27T06:42:44.855Z,8.09
2023-12-27T06:45:11.916Z,8.04
2023-12-27T06:47:38.448Z,8.04
2023-12-27T06:50:05.605Z,7.93
2023-12-27T06:52:32.176Z,7.97
2023-12-27T06:54:58.748Z,7.85
2023-12-27T06:57:25.279Z,7.91
2023-12-27T06:59:52.086Z,7.88
2023-12-27T07:02:18.641Z,7.87
2023-12-27T07:04:45.680Z,7.85
2023-12-27T07:07:12.339Z,7.80
2023-12-27T07:09:38.994Z,7.81
2023-12-27T07:12:06.165Z,7.82
2023-12-27T07:14:32.772Z,7.78
2023-12-27T07:16:59.341Z,7.87
2023-12-27T07:19:25.844Z,7.89
2023-12-27T07:21:52.419Z,7.88
2023-12-27T07:24:18.993Z,7.90
2023-12-27T07:26:45.632Z,7.95
2023-12-27T07:29:12.302Z,7.96
2023-12-27T07:31:39.005Z,7.97
2023-12-27T07:34:05.693Z,7.99
2023-12-27T07:36:32.373Z,7.99
2023-12-27T07:38:59.027Z,8.04
2023-12-27T07:41:25.578Z,8.08
2023-12-27T07:43:52.062Z,8.05
2023-12-27T07:46:18.560Z,8.11
2023-12-27T07:48:45.364Z,8.08
2023-12-27T07:51:11.970Z,8.18
2023-12-27T07:53:39.238Z,8.21
2023-12-27T07:56:10.582Z,8.26
2023-12-27T07:58:37.089Z,8.34
2023-12-27T08:01:03.774Z,8.41
2023-12-27T08:03:30.682Z,8.47
2023-12-27T08:05:57.264Z,8.49
2023-12-27T08:08:24.087Z,8.60
2023-12-27T08:10:50.612Z,8.58
2023-12-27T08:13:17.138Z,8.74
2023-12-27T08:15:43.739Z,8.77
2023-12-27T08:18:10.375Z,8.86
2023-12-27T08:20:37.570Z,8.89
2023-12-27T08:23:04.325Z,8.98
2023-12-27T08:25:31.027Z,9.03
2023-12-27T08:27:57.738Z,9.03
2023-12-27T08:30:24.604Z,9.17
2023-12-27T08:32:51.252Z,9.22
2023-12-27T08:35:20.018Z,9.28
2023-12-27T08:37:46.931Z,9.32
2023-12-27T08:40:13.655Z,9.39
2023-12-27T08:42:40.235Z,9.40
2023-12-27T08:45:07.295Z,9.36
2023-12-27T08:47:33.896Z,9.24
2023-12-27T08:50:04.709Z,9.05
2023-12-27T08:52:32.630Z,8.98
2023-12-27T08:54:59.514Z,8.99
2023-12-27T08:57:26.345Z,9.05
2023-12-27T08:59:52.858Z,9.03
2023-12-27T09:02:19.405Z,9.10
2023-12-27T09:04:45.998Z,9.01
2023-12-27T09:07:12.655Z,9.09
2023-12-27T09:09:40.624Z,9.17
2023-12-27T09:12:07.375Z,9.18
2023-12-27T09:14:33.998Z,9.34
2023-12-27T09:17:00.599Z,9.40
2023-12-27T09:19:27.233Z,9.42
2023-12-27T09:21:53.785Z,9.36
2023-12-27T09:24:21.192Z,9.39
2023-12-27T09:26:50.914Z,9.23
2023-12-27T09:29:17.525Z,9.48
2023-12-27T09:31:44.906Z,9.60
2023-12-27T09:34:11.891Z,9.71
2023-12-27T09:36:38.751Z,9.62
2023-12-27T09:39:06.127Z,9.59
2023-12-27T09:41:33.150Z,9.66
2023-12-27T09:44:00.818Z,9.76
2023-12-27T09:46:29.394Z,9.70
2023-12-27T09:48:56.573Z,9.66
2023-12-27T09:51:25.269Z,9.64
2023-12-27T09:53:52.699Z,9.65
2023-12-27T09:56:27.034Z,9.61
2023-12-27T09:58:59.057Z,9.64
2023-12-27T10:01:26.386Z,9.61
2023-12-27T10:04:04.617Z,9.68
2023-12-27T10:06:49.186Z,9.83
2023-12-27T10:09:17.798Z,9.81
2023-12-27T10:11:45.714Z,9.72
2023-12-27T10:14:14.538Z,9.70
2023-12-27T10:16:41.021Z,9.75
2023-12-27T10:19:09.186Z,9.70
2023-12-27T10:21:46.217Z,9.75
2023-12-27T10:24:13.170Z,9.84
2023-12-27T10:26:39.821Z,9.81
2023-12-27T10:29:08.721Z,9.73
2023-12-27T10:31:35.748Z,9.78
2023-12-27T10:34:05.009Z,9.78
2023-12-27T10:36:32.223Z,9.84
2023-12-27T10:39:03.782Z,9.81
2023-12-27T10:41:33.568Z,9.85
2023-12-27T10:44:01.702Z,9.81
2023-12-27T10:46:28.234Z,9.81
2023-12-27T10:49:01.345Z,9.82
2023-12-27T10:51:31.105Z,9.82
2023-12-27T10:54:04.516Z,9.90
2023-12-27T10:56:36.967Z,9.92
2023-12-27T10:59:05.940Z,9.91
2023-12-27T11:01:34.847Z,9.85
2023-12-27T11:04:12.547Z,9.77
2023-12-27T11:06:40.836Z,9.99
2023-12-27T11:09:10.307Z,9.98
2023-12-27T11:11:40.460Z,10.06
2023-12-27T11:14:15.029Z,10.11
2023-12-27T11:16:42.181Z,10.09
2023-12-27T11:19:09.812Z,10.19
2023-12-27T11:21:37.647Z,10.21
2023-12-27T11:24:05.415Z,10.18
2023-12-27T11:26:37.640Z,10.05
2023-12-27T11:29:12.036Z,10.16
2023-12-27T11:31:42.964Z,10.19
2023-12-27T11:34:12.540Z,10.34
2023-12-27T11:36:39.638Z,10.34
2023-12-27T11:39:25.300Z,10.39
2023-12-27T11:41:51.862Z,10.31
2023-12-27T11:44:18.511Z,10.29
2023-12-27T11:46:45.427Z,10.34
2023-12-27T11:49:22.516Z,10.37
2023-12-27T11:51:49.328Z,10.48
2023-12-27T11:54:25.346Z,10.34
2023-12-27T11:56:53.530Z,10.32
2023-12-27T11:59:23.065Z,10.27
2023-12-27T12:01:50.780Z,10.30
2023-12-27T12:04:55.818Z,10.30
2023-12-27T12:07:36.842Z,10.32
2023-12-27T12:10:04.302Z,10.32
2023-12-27T12:12:31.762Z,10.32
2023-12-27T12:14:59.623Z,10.19
2023-12-27T12:17:28.376Z,10.31
2023-12-27T12:19:56.619Z,10.38
2023-12-27T12:22:23.327Z,10.32
2023-12-27T12:24:49.915Z,10.51
2023-12-27T12:27:21.936Z,10.48
2023-12-27T12:29:48.451Z,10.57
2023-12-27T12:32:16.569Z,10.51
2023-12-27T12:34:43.939Z,10.44
2023-12-27T12:37:11.220Z,10.40
2023-12-27T12:39:37.967Z,10.50
2023-12-27T12:42:04.726Z,10.50
2023-12-27T12:44:33.156Z,10.52
2023-12-27T12:47:01.073Z,10.49
2023-12-27T12:49:28.981Z,10.58
2023-12-27T12:52:05.458Z,10.61
2023-12-27T12:54:33.534Z,10.69
2023-12-27T12:57:04.145Z,10.76
2023-12-27T12:59:31.292Z,10.82
2023-12-27T13:01:58.026Z,10.83
2023-12-27T13:04:25.410Z,10.93
2023-12-27T13:07:02.622Z,10.96
2023-12-27T13:09:29.374Z,11.00
2023-12-27T13:11:56.058Z,11.11
2023-12-27T13:14:22.691Z,11.16
2023-12-27T13:16:49.725Z,11.18
2023-12-27T13:19:18.420Z,11.19
2023-12-27T13:21:45.284Z,11.24
2023-12-27T13:24:11.928Z,11.21
2023-12-27T13:26:38.848Z,11.28
2023-12-27T13:29:05.420Z,11.33
2023-12-27T13:31:33.415Z,11.41
2023-12-27T13:34:00.411Z,11.42
2023-12-27T13:36:27.628Z,11.42
2023-12-27T13:38:54.133Z,11.47
2023-12-27T13:41:20.651Z,11.52
2023-12-27T13:43:47.154Z,11.54
2023-12-27T13:46:13.984Z,11.55
2023-12-27T13:48:41.214Z,11.53
2023-12-27T13:51:07.914Z,11.62
2023-12-27T13:53:35.534Z,11.64
2023-12-27T13:56:02.762Z,11.67
2023-12-27T13:58:30.237Z,11.68
2023-12-27T14:00:57.290Z,11.73
2023-12-27T14:03:23.963Z,11.74
2023-12-27T14:05:50.615Z,11.72
2023-12-27T14:08:17.126Z,11.79
2023-12-27T14:10:43.664Z,11.77
2023-12-27T14:13:10.553Z,11.73
2023-12-27T14:15:37.341Z,11.79
2023-12-27T14:18:05.826Z,11.75
2023-12-27T14:20:32.858Z,11.78
2023-12-27T14:22:59.397Z,11.66
2023-12-27T14:25:25.906Z,11.78
2023-12-27T14:27:53.720Z,11.69
2023-12-27T14:30:20.356Z,11.72
2023-12-27T14:32:46.915Z,11.70
2023-12-27T14:35:13.485Z,11.67
2023-12-27T14:37:41.544Z,11.63
2023-12-27T14:40:09.399Z,11.53
2023-12-27T14:42:36.191Z,11.59
2023-12-27T14:45:03.817Z,11.56
2023-12-27T14:47:30.830Z,11.50
2023-12-27T14:49:57.370Z,11.40
2023-12-27T14:52:23.884Z,11.33
2023-12-27T14:54:50.412Z,11.25
2023-12-27T14:57:21.583Z,11.23
2023-12-27T14:59:48.116Z,11.17
2023-12-27T15:02:14.711Z,11.09
2023-12-27T15:04:41.420Z,11.01
2023-12-27T15:07:08.011Z,10.95
2023-12-27T15:09:34.789Z,10.88
2023-12-27T15:12:01.357Z,10.78
2023-12-27T15:14:27.971Z,10.71
2023-12-27T15:16:55.480Z,10.67
2023-12-27T15:19:22.068Z,10.60
2023-12-27T15:21:48.719Z,10.56
2023-12-27T15:24:15.440Z,10.49
2023-12-27T15:26:42.131Z,10.42
2023-12-27T15:29:09.051Z,10.32
2023-12-27T15:31:35.899Z,10.23
2023-12-27T15:34:03.382Z,10.12
2023-12-27T15:36:30.515Z,10.04
2023-12-27T15:38:57.390Z,9.92
2023-12-27T15:41:29.669Z,9.79
2023-12-27T15:44:00.778Z,9.69
2023-12-27T15:46:30.683Z,9.55
2023-12-27T15:48:58.540Z,9.45
2023-12-27T15:51:35.749Z,9.24
2023-12-27T15:54:07.928Z,9.25
2023-12-27T15:56:39.280Z,9.11
2023-12-27T15:59:06.463Z,9.05
2023-12-27T16:01:37.127Z,8.97
2023-12-27T16:04:07.754Z,8.94
2023-12-27T16:06:36.899Z,8.86
2023-12-27T16:09:05.568Z,8.77
2023-12-27T16:11:32.409Z,8.73
2023-12-27T16:14:00.052Z,8.63
2023-12-27T16:16:27.100Z,8.59
2023-12-27T16:18:53.964Z,8.56
2023-12-27T16:21:21.343Z,8.46
2023-12-27T16:23:48.187Z,8.41
2023-12-27T16:26:17.098Z,8.36
2023-12-27T16:28:48.250Z,8.31
2023-12-27T16:31:15.187Z,8.22
2023-12-27T16:33:42.090Z,8.21
2023-12-27T16:36:09.117Z,8.16
2023-12-27T16:38:35.705Z,8.11
2023-12-27T16:41:04.529Z,8.08
2023-12-27T16:43:37.913Z,8.07
2023-12-27T16:46:06.886Z,7.98
2023-12-27T16:48:34.238Z,8.04
2023-12-27T16:51:01.741Z,7.96
2023-12-27T16:53:28.449Z,8.04
2023-12-27T16:55:55.056Z,7.98
2023-12-27T16:58:21.770Z,7.90
2023-12-27T17:00:49.524Z,7.92
2023-12-27T17:03:16.809Z,7.84
2023-12-27T17:05:44.076Z,7.86
2023-12-27T17:08:11.226Z,7.78
2023-12-27T17:10:39.575Z,7.81
2023-12-27T17:13:06.199Z,7.78
2023-12-27T17:15:33.293Z,7.76
2023-12-27T17:18:01.278Z,7.71
2023-12-27T17:20:28.440Z,7.67
2023-12-27T17:22:55.104Z,7.62
2023-12-27T17:25:22.488Z,7.51
2023-12-27T17:27:49.098Z,7.50
2023-12-27T17:30:16.063Z,7.41
2023-12-27T17:32:45.198Z,7.38
2023-12-27T17:35:11.965Z,7.32
2023-12-27T17:37:40.089Z,7.27
2023-12-27T17:40:09.358Z,7.19
2023-12-27T17:42:39.344Z,7.23
2023-12-27T17:45:06.705Z,7.20
2023-12-27T17:47:33.765Z,7.22
2023-12-27T17:50:01.790Z,7.23
2023-12-27T17:52:29.889Z,7.20
2023-12-27T17:54:56.987Z,7.20
2023-12-27T17:57:24.053Z,7.22
2023-12-27T17:59:53.718Z,7.22
2023-12-27T18:02:20.365Z,7.22
2023-12-27T18:04:48.736Z,7.22
2023-12-27T18:07:15.966Z,7.17
2023-12-27T18:09:45.600Z,7.14
2023-12-27T18:12:14.798Z,7.13
2023-12-27T18:14:41.572Z,7.19
2023-12-27T18:17:11.782Z,7.15
2023-12-27T18:19:41.235Z,7.17
2023-12-27T18:22:08.441Z,7.21
2023-12-27T18:24:39.033Z,7.19
2023-12-27T18:27:06.334Z,7.24
2023-12-27T18:29:37.475Z,7.26
2023-12-27T18:32:05.779Z,7.26
2023-12-27T18:34:36.626Z,7.27
2023-12-27T18:37:03.287Z,7.19
2023-12-27T18:39:29.930Z,7.25
2023-12-27T18:41:56.542Z,7.26
2023-12-27T18:44:24.113Z,7.26
2023-12-27T18:46:50.649Z,7.32
2023-12-27T18:49:17.448Z,7.33
2023-12-27T18:51:44.159Z,7.30
2023-12-27T18:54:10.829Z,7.28
2023-12-27T18:56:37.363Z,7.33
2023-12-27T18:59:05.180Z,7.33
2023-12-27T19:01:32.309Z,7.31
2023-12-27T19:03:59.230Z,7.23
2023-12-27T19:06:27.583Z,7.22
2023-12-27T19:09:00.822Z,7.19
2023-12-27T19:11:29.425Z,7.11
2023-12-27T19:13:58.311Z,7.07
2023-12-27T19:16:27.928Z,7.09
2023-12-27T19:18:55.535Z,7.02
2023-12-27T19:21:23.125Z,6.99
2023-12-27T19:23:49.894Z,6.91
2023-12-27T19:26:18.550Z,6.90
2023-12-27T19:28:47.640Z,6.80
2023-12-27T19:31:14.995Z,6.84
2023-12-27T19:33:41.894Z,6.84
2023-12-27T19:36:09.361Z,6.81
2023-12-27T19:38:36.463Z,6.81
2023-12-27T19:41:05.944Z,6.78
2023-12-27T19:43:33.249Z,6.82
2023-12-27T19:45:59.911Z,6.85
2023-12-27T19:48:27.048Z,6.84
2023-12-27T19:50:53.841Z,6.82
2023-12-27T19:53:20.322Z,6.82
2023-12-27T19:55:48.374Z,6.84
2023-12-27T19:58:15.924Z,6.87
2023-12-27T20:00:42.569Z,6.87
2023-12-27T20:03:09.340Z,6.80
2023-12-27T20:05:36.017Z,6.83
2023-12-27T20:08:03.129Z,6.94
2023-12-27T20:10:31.663Z,6.93
2023-12-27T20:13:02.302Z,6.96
2023-12-27T20:15:29.708Z,6.97
2023-12-27T20:17:56.773Z,6.96
2023-12-27T20:20:23.691Z,6.96
2023-12-27T20:22:51.463Z,6.96
2023-12-27T20:25:18.039Z,6.89
2023-12-27T20:27:45.032Z,6.97
2023-12-27T20:30:12.300Z,6.94
2023-12-27T20:32:38.874Z,7.01
2023-12-27T20:35:06.052Z,7.04
2023-12-27T20:37:32.952Z,7.03
2023-12-27T20:40:02.392Z,7.03
2023-12-27T20:42:31.309Z,7.11
2023-12-27T20:44:58.053Z,7.07
2023-12-27T20:47:24.678Z,7.09
2023-12-27T20:49:51.348Z,7.15
2023-12-27T20:52:17.978Z,7.17
2023-12-27T20:54:44.468Z,7.18
2023-12-27T20:57:11.221Z,7.23
2023-12-27T20:59:39.102Z,7.21
2023-12-27T21:02:05.623Z,7.27
2023-12-27T21:04:32.532Z,7.25
2023-12-27T21:07:02.535Z,7.27
2023-12-27T21:09:29.092Z,7.32
2023-12-27T21:11:56.271Z,7.28
2023-12-27T21:14:22.864Z,7.27
2023-12-27T21:16:49.458Z,7.26
2023-12-27T21:19:16.189Z,7.33
2023-12-27T21:21:44.142Z,7.27
2023-12-27T21:24:11.762Z,7.28
2023-12-27T21:26:38.374Z,7.31
2023-12-27T21:29:05.139Z,7.30
2023-12-27T21:31:33.819Z,7.27
2023-12-27T21:34:00.721Z,7.25
2023-12-27T21:36:30.035Z,7.29
2023-12-27T21:38:57.874Z,7.28
2023-12-27T21:41:28.505Z,7.27
2023-12-27T21:43:57.568Z,7.26
2023-12-27T21:46:30.257Z,7.09
2023-12-27T21:48:57.462Z,7.23
2023-12-27T21:51:28.496Z,7.20
2023-12-27T21:53:56.111Z,7.23
2023-12-27T21:56:23.820Z,7.24
2023-12-27T21:58:53.862Z,7.21
2023-12-27T22:01:21.926Z,7.16
2023-12-27T22:03:50.123Z,7.16
2023-12-27T22:06:17.230Z,7.17
2023-12-27T22:08:44.404Z,7.12
2023-12-27T22:11:12.723Z,7.16
2023-12-27T22:13:42.726Z,7.10
2023-12-27T22:16:16.859Z,7.05
2023-12-27T22:18:46.012Z,7.05
2023-12-27T22:21:18.030Z,7.02
2023-12-27T22:23:45.667Z,6.96
2023-12-27T22:26:14.078Z,6.95
2023-12-27T22:28:40.735Z,6.89
2023-12-27T22:31:07.729Z,6.89
2023-12-27T22:33:34.634Z,6.81
2023-12-27T22:36:01.330Z,6.81
2023-12-27T22:38:28.111Z,6.79
2023-12-27T22:40:54.879Z,6.80
2023-12-27T22:43:21.419Z,6.82
2023-12-27T22:45:48.066Z,6.78
2023-12-27T22:48:14.794Z,6.79
2023-12-27T22:50:41.332Z,6.79
2023-12-27T22:53:08.024Z,6.81
2023-12-27T22:55:34.611Z,6.81
2023-12-27T22:58:01.745Z,6.76
2023-12-27T23:00:28.485Z,6.76
2023-12-27T23:02:55.077Z,6.73
2023-12-27T23:05:23.483Z,6.76
2023-12-27T23:07:50.435Z,6.63
2023-12-27T23:10:16.929Z,6.68
2023-12-27T23:12:44.057Z,6.65
2023-12-27T23:15:11.317Z,6.62
2023-12-27T23:17:39.606Z,6.54
2023-12-27T23:20:07.086Z,6.56
2023-12-27T23:22:33.928Z,6.53
2023-12-27T23:25:00.817Z,6.43
2023-12-27T23:27:28.124Z,6.45
2023-12-27T23:29:54.832Z,6.40
2023-12-27T23:32:21.594Z,6.33
2023-12-27T23:34:48.406Z,6.27
2023-12-27T23:37:15.014Z,6.24
2023-12-27T23:39:43.053Z,6.17
2023-12-27T23:42:10.573Z,6.19
2023-12-27T23:44:37.215Z,6.12
2023-12-27T23:47:03.810Z,6.14
2023-12-27T23:49:30.883Z,6.13
2023-12-27T23:51:59.056Z,6.11
2023-12-27T23:54:25.857Z,6.08
2023-12-27T23:56:54.188Z,6.04
2023-12-27T23:59:20.750Z,6.09
